createdAt,value
2023-05-14T00:01:40.173Z,10.74
2023-05-14T00:08:00.183Z,10.7
2023-05-14T00:14:23.239Z,10.62
2023-05-14T00:20:43.242Z,10.54
2023-05-14T00:27:06.207Z,10.46
2023-05-14T00:33:26.202Z,10.37
2023-05-14T00:39:49.175Z,10.29
2023-05-14T00:46:09.227Z,10.21
2023-05-14T00:52:32.223Z,10.13
2023-05-14T00:58:52.187Z,10.06
2023-05-14T01:05:15.250Z,9.97
2023-05-14T01:11:35.290Z,9.86
2023-05-14T01:17:58.307Z,9.79
2023-05-14T01:24:18.156Z,9.79
2023-05-14T01:30:41.253Z,9.79
2023-05-14T01:37:01.175Z,9.79
2023-05-14T01:43:24.237Z,9.74
2023-05-14T01:49:44.202Z,9.64
2023-05-14T01:56:07.299Z,9.57
2023-05-14T02:02:27.257Z,9.54
2023-05-14T02:08:50.222Z,9.51
2023-05-14T02:15:10.178Z,9.47
2023-05-14T02:21:33.218Z,9.43
2023-05-14T02:27:53.177Z,9.38
2023-05-14T02:34:16.207Z,9.22
2023-05-14T02:40:36.156Z,9.14
2023-05-14T02:46:59.348Z,9.07
2023-05-14T02:53:19.187Z,9.02
2023-05-14T02:59:42.186Z,8.97
2023-05-14T03:06:02.270Z,8.95
2023-05-14T03:12:25.210Z,8.89
2023-05-14T03:28:15.018Z,8.76
2023-05-14T03:34:35.152Z,8.72
2023-05-14T03:40:58.260Z,8.74
2023-05-14T03:47:18.251Z,8.73
2023-05-14T03:53:41.147Z,8.69
2023-05-14T04:00:01.251Z,8.66
2023-05-14T04:06:24.193Z,8.62
2023-05-14T04:12:44.216Z,8.62
2023-05-14T04:19:07.265Z,8.65
2023-05-14T04:25:27.218Z,8.69
2023-05-14T04:31:50.271Z,8.66
2023-05-14T04:38:10.240Z,8.61
2023-05-14T04:44:33.290Z,8.59
2023-05-14T04:50:53.197Z,8.56
2023-05-14T04:57:16.174Z,8.58
2023-05-14T05:03:36.296Z,8.63
2023-05-14T05:09:59.172Z,8.69
2023-05-14T05:16:19.230Z,8.75
2023-05-14T05:22:42.208Z,8.84
2023-05-14T05:29:02.218Z,9.01
2023-05-14T05:35:25.233Z,9.18
2023-05-14T05:41:45.266Z,9.34
2023-05-14T05:48:08.248Z,9.44
2023-05-14T05:54:28.271Z,9.56
2023-05-14T06:00:51.238Z,9.68
2023-05-14T06:07:11.229Z,9.84
2023-05-14T06:13:34.147Z,10.02
2023-05-14T06:19:54.252Z,10.24
2023-05-14T06:26:17.231Z,10.49
2023-05-14T06:32:37.228Z,10.73
2023-05-14T06:39:00.372Z,10.94
2023-05-14T06:45:20.165Z,11.14
2023-05-14T06:51:43.154Z,11.3
2023-05-14T06:58:03.266Z,11.46
2023-05-14T07:04:26.229Z,11.61
2023-05-14T07:10:46.186Z,11.76
2023-05-14T07:17:09.300Z,11.94
2023-05-14T07:23:29.161Z,12.14
2023-05-14T07:29:52.195Z,12.41
2023-05-14T07:36:12.234Z,12.7
2023-05-14T07:42:36.869Z,13
2023-05-14T07:48:55.260Z,13.3
2023-05-14T07:55:18.202Z,13.65
2023-05-14T08:01:39.392Z,14
2023-05-14T08:08:01.222Z,14.34
2023-05-14T08:14:21.194Z,14.67
2023-05-14T08:20:44.221Z,15
2023-05-14T08:44:07.730Z,16.04
2023-05-14T08:50:27.552Z,16.44
2023-05-14T08:56:51.857Z,16.85
2023-05-14T09:03:10.193Z,17.16
2023-05-14T09:09:33.174Z,17.46
2023-05-14T09:15:53.255Z,17.49
2023-05-14T09:22:16.194Z,17.56
2023-05-14T09:28:36.194Z,17.81
2023-05-14T09:34:59.201Z,18.2
2023-05-14T09:41:19.341Z,18.31
2023-05-14T09:47:42.290Z,18.61
2023-05-14T09:54:02.305Z,18.97
2023-05-14T10:00:25.385Z,19.38
2023-05-14T10:06:45.181Z,19.88
2023-05-14T10:13:08.367Z,20.14
2023-05-14T10:19:28.402Z,20.3
2023-05-14T10:25:51.232Z,20.72
2023-05-14T10:32:11.307Z,21.02
2023-05-14T10:38:34.242Z,20.92
2023-05-14T10:44:54.162Z,20.82
2023-05-14T10:51:17.359Z,20.82
2023-05-14T10:57:37.225Z,21.01
2023-05-14T11:04:00.293Z,20.8
2023-05-14T11:10:20.248Z,20.41
2023-05-14T11:16:43.260Z,20.36
2023-05-14T11:23:03.225Z,20.22
2023-05-14T11:29:26.329Z,20.11
2023-05-14T11:35:46.259Z,20.18
2023-05-14T11:42:09.236Z,20.33
2023-05-14T11:48:29.180Z,20.82
2023-05-14T11:54:52.308Z,20.77
2023-05-14T12:01:12.408Z,20.52
2023-05-14T12:07:35.250Z,20.29
2023-05-14T12:13:55.214Z,20.35
2023-05-14T12:20:18.198Z,20.43
2023-05-14T12:26:38.326Z,20.43
2023-05-14T12:33:01.260Z,20.61
2023-05-14T12:39:21.153Z,20.71
2023-05-14T12:45:44.203Z,21.27
2023-05-14T12:52:19.771Z,21.84
2023-05-14T12:58:27.194Z,22.07
2023-05-14T13:04:47.219Z,21.86
2023-05-14T13:11:10.415Z,21.66
2023-05-14T13:17:30.242Z,21.6
2023-05-14T13:23:53.210Z,21.62
2023-05-14T13:30:13.396Z,21.73
2023-05-14T13:36:36.201Z,21.87
2023-05-14T13:59:41.701Z,22.41
2023-05-14T14:06:01.165Z,22.15
2023-05-14T14:12:24.223Z,22.21
2023-05-14T14:18:44.174Z,22.83
2023-05-14T14:25:07.161Z,23.6
2023-05-14T14:31:27.192Z,24.45
2023-05-14T14:37:50.189Z,24.8
2023-05-14T14:44:10.218Z,24.81
2023-05-14T14:50:33.153Z,24.46
2023-05-14T14:56:53.400Z,23.96
2023-05-14T15:03:16.257Z,24.01
2023-05-14T15:09:36.468Z,24.12
2023-05-14T15:15:59.215Z,24.24
2023-05-14T15:22:19.153Z,24.22
2023-05-14T15:28:42.300Z,24.04
2023-05-14T15:35:02.226Z,23.37
2023-05-14T15:41:25.149Z,22.74
2023-05-14T15:47:45.276Z,22.33
2023-05-14T15:54:08.203Z,22.19
2023-05-14T16:00:28.142Z,22.07
2023-05-14T16:06:51.184Z,22.07
2023-05-14T16:13:11.178Z,22.11
2023-05-14T16:19:34.194Z,22.1
2023-05-14T16:25:54.147Z,22.09
2023-05-14T16:32:17.238Z,22.27
2023-05-14T16:38:41.542Z,22.18
2023-05-14T16:45:00.172Z,22.12
2023-05-14T16:51:20.208Z,22.08
2023-05-14T16:57:43.142Z,22.07
2023-05-14T17:04:03.158Z,21.94
2023-05-14T17:10:26.172Z,21.76
2023-05-14T17:16:46.162Z,21.6
2023-05-14T17:23:09.470Z,21.55
2023-05-14T17:29:29.482Z,21.54
2023-05-14T17:35:52.164Z,21.42
2023-05-14T17:42:12.174Z,21.26
2023-05-14T17:48:35.236Z,21.03
2023-05-14T17:54:55.183Z,20.81
2023-05-14T18:01:18.561Z,20.63
2023-05-14T18:07:38.191Z,20.44
2023-05-14T18:14:01.179Z,20.3
2023-05-14T18:20:21.275Z,20.1
2023-05-14T18:26:44.220Z,19.94
2023-05-14T18:33:04.192Z,19.77
2023-05-14T18:39:27.326Z,19.53
2023-05-14T18:45:47.240Z,19.28
2023-05-14T18:52:10.223Z,19
2023-05-14T18:58:30.257Z,18.66
2023-05-14T19:04:53.368Z,18.38
2023-05-14T19:11:13.178Z,18.2
2023-05-14T19:27:41.119Z,17.74
2023-05-14T19:34:01.160Z,17.55
2023-05-14T19:40:24.230Z,17.35
2023-05-14T19:46:44.329Z,17.16
2023-05-14T19:53:07.166Z,16.98
2023-05-14T19:59:27.196Z,16.82
2023-05-14T20:05:50.237Z,16.62
2023-05-14T20:12:10.185Z,16.42
2023-05-14T20:18:33.256Z,16.31
2023-05-14T20:24:53.193Z,16.14
2023-05-14T20:31:16.312Z,16.01
2023-05-14T20:37:36.144Z,15.89
2023-05-14T20:43:59.238Z,15.81
2023-05-14T20:50:19.159Z,15.68
2023-05-14T20:56:42.143Z,15.58
2023-05-14T21:03:02.317Z,15.39
2023-05-14T21:09:25.155Z,15.18
2023-05-14T21:15:45.188Z,15.1
2023-05-14T21:22:08.219Z,15.02
2023-05-14T21:28:28.150Z,14.9
2023-05-14T21:34:51.198Z,14.8
2023-05-14T21:41:11.175Z,14.72
2023-05-14T21:47:34.224Z,14.61
2023-05-14T21:53:54.171Z,14.53
2023-05-14T22:00:17.208Z,14.45
2023-05-14T22:23:15.182Z,13.98
2023-05-14T22:29:36.193Z,13.92
2023-05-14T22:35:58.175Z,13.82
2023-05-14T22:42:18.208Z,13.78
2023-05-14T22:48:41.170Z,13.76
2023-05-14T22:55:01.185Z,13.72
2023-05-14T23:01:24.214Z,13.71
2023-05-14T23:07:44.180Z,13.64
2023-05-14T23:14:07.224Z,13.57
2023-05-14T23:20:27.221Z,13.44
2023-05-14T23:26:50.191Z,13.37
2023-05-14T23:33:10.199Z,13.37
2023-05-14T23:39:33.165Z,13.36
2023-05-14T23:45:53.191Z,13.28
2023-05-14T23:52:16.202Z,13.19
2023-05-14T23:58:36.176Z,13.07
